Center Hill Observed Data For Previous 48 Hours

Caption
Day and Hour Reservoir Elevation (behind dam)* Tailwater Elevation (below dam)* Average Hourly Discharge*
1/17/2018 1 AM CST 630.36 478.66 0
1/17/2018 2 AM CST 630.35 477.15 0
1/17/2018 3 AM CST 630.33 479.93 3,400
1/17/2018 4 AM CST 630.32 482.92 6,980
1/17/2018 5 AM CST 630.30 483.40 7,020
1/17/2018 6 AM CST 630.27 483.57 7,040
1/17/2018 7 AM CST 630.25 483.65 7,040
1/17/2018 8 AM CST 630.22 483.72 7,040
1/17/2018 9 AM CST 630.20 483.75 7,040
1/17/2018 10 AM CST 630.17 483.77 7,040
1/17/2018 11 AM CST 630.16 481.76 3,460
1/17/2018 12 PM CST 630.16 478.66 0
1/17/2018 1 PM CST 630.16 477.26 0
1/17/2018 2 PM CST 630.16 476.36 0
1/17/2018 3 PM CST 630.16 475.76 0
1/17/2018 4 PM CST 630.16 475.56 0
1/17/2018 5 PM CST 630.16 479.86 3,400
1/17/2018 6 PM CST 630.14 482.64 6,980
1/17/2018 7 PM CST 630.11 483.21 7,020
1/17/2018 8 PM CST 630.10 483.50 7,040
1/17/2018 9 PM CST 630.09 483.59 7,040
1/17/2018 10 PM CST 630.06 483.76 7,040
1/17/2018 11 PM CST 630.04 481.74 3,460
1/18/2018 12 AM CST 630.04 478.64 0
1/18/2018 1 AM CST 630.02 477.12 0
1/18/2018 2 AM CST 630.01 476.21 0
1/18/2018 3 AM CST 630.00 479.90 3,420
1/18/2018 4 AM CST 630.00 482.70 6,980
1/18/2018 5 AM CST 629.97 483.37 7,040
1/18/2018 6 AM CST 629.94 483.64 7,040
1/18/2018 7 AM CST 629.93 483.63 7,040
1/18/2018 8 AM CST 629.92 483.82 7,130
1/18/2018 9 AM CST 629.88 483.88 7,130
1/18/2018 10 AM CST 629.86 483.86 7,130
1/18/2018 11 AM CST 629.86 481.76 3,480
1/18/2018 12 PM CST 629.85 478.25 0
1/18/2018 1 PM CST 629.85 477.25 0
1/18/2018 2 PM CST 629.84 476.34 0
1/18/2018 3 PM CST 629.85 475.75 0
1/18/2018 4 PM CST 629.85 475.55 0
1/18/2018 5 PM CST 629.84 479.74 3,420
1/18/2018 6 PM CST 629.82 482.72 7,020
1/18/2018 7 PM CST 629.81 483.21 7,040
1/18/2018 8 PM CST 629.78 483.48 7,040
1/18/2018 9 PM CST 629.76 483.56 7,080

Elevations are in feet above sea level. Discharges are in cubic feet per second and are reported at the end of the hour.